sensor_id;sensor_type;location;lat;lon;timestamp;temperature;humidity
20204;DHT22;10261;49.010;12.034;2022-12-10T00:01:06;4.70;99.90
20204;DHT22;10261;49.010;12.034;2022-12-10T00:02:08;4.70;99.90
20204;DHT22;10261;49.010;12.034;2022-12-10T00:03:11;4.70;99.90
20204;DHT22;10261;49.010;12.034;2022-12-10T00:04:13;4.70;99.90
20204;DHT22;10261;49.010;12.034;2022-12-10T00:05:17;4.70;99.90
20204;DHT22;10261;49.010;12.034;2022-12-10T00:06:20;4.70;99.90
20204;DHT22;10261;49.010;12.034;2022-12-10T00:07:23;4.80;99.90
20204;DHT22;10261;49.010;12.034;2022-12-10T00:08:26;4.80;99.90
20204;DHT22;10261;49.010;12.034;2022-12-10T00:09:28;4.70;99.90
20204;DHT22;10261;49.010;12.034;2022-12-10T00:10:31;4.70;99.90
20204;DHT22;10261;49.010;12.034;2022-12-10T00:11:33;4.70;99.90
20204;DHT22;10261;49.010;12.034;2022-12-10T00:12:36;4.70;99.90
20204;DHT22;10261;49.010;12.034;2022-12-10T00:13:40;4.70;99.90
20204;DHT22;10261;49.010;12.034;2022-12-10T00:14:43;4.80;99.90
20204;DHT22;10261;49.010;12.034;2022-12-10T00:15:45;4.80;99.90
20204;DHT22;10261;49.010;12.034;2022-12-10T00:16:48;4.90;99.90
20204;DHT22;10261;49.010;12.034;2022-12-10T00:17:51;5.00;99.90
20204;DHT22;10261;49.010;12.034;2022-12-10T00:18:54;5.00;99.90
20204;DHT22;10261;49.010;12.034;2022-12-10T00:19:57;5.00;99.90
20204;DHT22;10261;49.010;12.034;2022-12-10T00:21:01;5.10;99.90
20204;DHT22;10261;49.010;12.034;2022-12-10T00:22:04;5.00;99.90
20204;DHT22;10261;49.010;12.034;2022-12-10T00:23:06;5.00;99.90
20204;DHT22;10261;49.010;12.034;2022-12-10T00:24:10;5.10;99.90
20204;DHT22;10261;49.010;12.034;2022-12-10T00:25:12;5.00;99.90
20204;DHT22;10261;49.010;12.034;2022-12-10T00:26:16;5.00;99.90
20204;DHT22;10261;49.010;12.034;2022-12-10T00:27:19;4.90;99.90
20204;DHT22;10261;49.010;12.034;2022-12-10T00:28:22;4.90;99.90
20204;DHT22;10261;49.010;12.034;2022-12-10T00:29:25;4.90;99.90
20204;DHT22;10261;49.010;12.034;2022-12-10T00:30:28;4.90;99.90
20204;DHT22;10261;49.010;12.034;2022-12-10T00:31:31;4.90;99.90
20204;DHT22;10261;49.010;12.034;2022-12-10T00:32:34;4.90;99.90
20204;DHT22;10261;49.010;12.034;2022-12-10T00:33:36;4.80;99.90
20204;DHT22;10261;49.010;12.034;2022-12-10T00:34:39;4.80;99.90
20204;DHT22;10261;49.010;12.034;2022-12-10T00:35:41;4.80;99.90
20204;DHT22;10261;49.010;12.034;2022-12-10T00:36:47;4.80;99.90
20204;DHT22;10261;49.010;12.034;2022-12-10T00:37:50;4.80;99.90
20204;DHT22;10261;49.010;12.034;2022-12-10T00:38:54;4.90;99.90
20204;DHT22;10261;49.010;12.034;2022-12-10T00:39:55;5.00;99.90
20204;DHT22;10261;49.010;12.034;2022-12-10T00:40:59;5.00;99.90
20204;DHT22;10261;49.010;12.034;2022-12-10T00:42:02;4.90;99.90
20204;DHT22;10261;49.010;12.034;2022-12-10T00:43:05;4.80;99.90
20204;DHT22;10261;49.010;12.034;2022-12-10T00:44:07;4.80;99.90
20204;DHT22;10261;49.010;12.034;2022-12-10T00:45:11;4.80;99.90
20204;DHT22;10261;49.010;12.034;2022-12-10T00:46:14;4.80;99.90
20204;DHT22;10261;49.010;12.034;2022-12-10T00:47:18;4.80;99.90
20204;DHT22;10261;49.010;12.034;2022-12-10T00:48:21;4.80;99.90
20204;DHT22;10261;49.010;12.034;2022-12-10T00:49:23;4.70;99.90
20204;DHT22;10261;49.010;12.034;2022-12-10T00:50:26;4.70;99.90
20204;DHT22;10261;49.010;12.034;2022-12-10T00:51:28;4.80;99.90
20204;DHT22;10261;49.010;12.034;2022-12-10T00:52:32;4.80;99.90
20204;DHT22;10261;49.010;12.034;2022-12-10T00:53:35;4.80;99.90
20204;DHT22;10261;49.010;12.034;2022-12-10T00:54:38;4.80;99.90
20204;DHT22;10261;49.010;12.034;2022-12-10T00:55:43;4.80;99.90
20204;DHT22;10261;49.010;12.034;2022-12-10T00:56:45;4.80;99.90
20204;DHT22;10261;49.010;12.034;2022-12-10T00:57:48;4.80;99.90
20204;DHT22;10261;49.010;12.034;2022-12-10T00:58:51;4.70;99.90
20204;DHT22;10261;49.010;12.034;2022-12-10T00:59:54;4.80;99.90
20204;DHT22;10261;49.010;12.034;2022-12-10T01:01:11;4.80;99.90
20204;DHT22;10261;49.010;12.034;2022-12-10T01:02:14;4.80;99.90
20204;DHT22;10261;49.010;12.034;2022-12-10T01:03:16;4.80;99.90
20204;DHT22;10261;49.010;12.034;2022-12-10T01:04:19;4.90;99.90
20204;DHT22;10261;49.010;12.034;2022-12-10T01:05:21;4.80;99.90
20204;DHT22;10261;49.010;12.034;2022-12-10T01:06:26;4.90;99.90
20204;DHT22;10261;49.010;12.034;2022-12-10T01:07:28;4.90;99.90
20204;DHT22;10261;49.010;12.034;2022-12-10T01:08:31;4.80;99.90
20204;DHT22;10261;49.010;12.034;2022-12-10T01:09:33;4.90;99.90
20204;DHT22;10261;49.010;12.034;2022-12-10T01:10:36;4.90;99.90
20204;DHT22;10261;49.010;12.034;2022-12-10T01:11:40;4.80;99.90
20204;DHT22;10261;49.010;12.034;2022-12-10T01:12:43;4.70;99.90
20204;DHT22;10261;49.010;12.034;2022-12-10T01:13:47;4.70;99.90
20204;DHT22;10261;49.010;12.034;2022-12-10T01:14:50;4.70;99.90
20204;DHT22;10261;49.010;12.034;2022-12-10T01:15:52;4.80;99.90
20204;DHT22;10261;49.010;12.034;2022-12-10T01:16:59;4.80;99.90
20204;DHT22;10261;49.010;12.034;2022-12-10T01:18:04;4.80;99.90
20204;DHT22;10261;49.010;12.034;2022-12-10T01:19:06;4.80;99.90
20204;DHT22;10261;49.010;12.034;2022-12-10T01:20:10;4.70;99.90
20204;DHT22;10261;49.010;12.034;2022-12-10T01:21:15;4.80;99.90
20204;DHT22;10261;49.010;12.034;2022-12-10T01:22:18;4.80;99.90
20204;DHT22;10261;49.010;12.034;2022-12-10T01:23:20;4.90;99.90
20204;DHT22;10261;49.010;12.034;2022-12-10T01:24:26;4.90;99.90
20204;DHT22;10261;49.010;12.034;2022-12-10T01:25:28;5.00;99.90
20204;DHT22;10261;49.010;12.034;2022-12-10T01:26:32;5.00;99.90
20204;DHT22;10261;49.010;12.034;2022-12-10T01:27:35;5.10;99.90
20204;DHT22;10261;49.010;12.034;2022-12-10T01:28:39;5.00;99.90
20204;DHT22;10261;49.010;12.034;2022-12-10T01:29:41;5.00;99.90
20204;DHT22;10261;49.010;12.034;2022-12-10T01:30:44;4.90;99.90
20204;DHT22;10261;49.010;12.034;2022-12-10T01:31:50;4.80;99.90
20204;DHT22;10261;49.010;12.034;2022-12-10T01:32:55;4.90;99.90
20204;DHT22;10261;49.010;12.034;2022-12-10T01:33:57;4.80;99.90
20204;DHT22;10261;49.010;12.034;2022-12-10T01:35:00;4.70;99.90
20204;DHT22;10261;49.010;12.034;2022-12-10T01:36:03;4.70;99.90
20204;DHT22;10261;49.010;12.034;2022-12-10T01:37:07;4.80;99.90
20204;DHT22;10261;49.010;12.034;2022-12-10T01:38:09;4.80;99.90
20204;DHT22;10261;49.010;12.034;2022-12-10T01:39:14;4.90;99.90
20204;DHT22;10261;49.010;12.034;2022-12-10T01:40:16;4.90;99.90
20204;DHT22;10261;49.010;12.034;2022-12-10T01:41:21;4.90;99.90
20204;DHT22;10261;49.010;12.034;2022-12-10T01:42:23;4.80;99.90
20204;DHT22;10261;49.010;12.034;2022-12-10T01:43:27;4.90;99.90
20204;DHT22;10261;49.010;12.034;2022-12-10T01:44:59;4.90;99.90
20204;DHT22;10261;49.010;12.034;2022-12-10T01:46:02;4.90;99.90
20204;DHT22;10261;49.010;12.034;2022-12-10T01:47:04;4.80;99.90
20204;DHT22;10261;49.010;12.034;2022-12-10T01:48:08;4.80;99.90
20204;DHT22;10261;49.010;12.034;2022-12-10T01:49:14;4.80;99.90
20204;DHT22;10261;49.010;12.034;2022-12-10T01:50:17;4.70;99.90
20204;DHT22;10261;49.010;12.034;2022-12-10T01:51:21;4.80;99.90
20204;DHT22;10261;49.010;12.034;2022-12-10T01:52:24;4.70;99.90
20204;DHT22;10261;49.010;12.034;2022-12-10T01:53:27;4.80;99.90
20204;DHT22;10261;49.010;12.034;2022-12-10T01:54:32;4.80;99.90
20204;DHT22;10261;49.010;12.034;2022-12-10T01:55:46;4.70;99.90
20204;DHT22;10261;49.010;12.034;2022-12-10T01:56:52;4.70;99.90
20204;DHT22;10261;49.010;12.034;2022-12-10T01:57:57;4.80;99.90
20204;DHT22;10261;49.010;12.034;2022-12-10T01:58:58;4.90;99.90
20204;DHT22;10261;49.010;12.034;2022-12-10T02:00:05;4.80;99.90
20204;DHT22;10261;49.010;12.034;2022-12-10T02:01:11;4.80;99.90
20204;DHT22;10261;49.010;12.034;2022-12-10T02:02:21;4.80;99.90
20204;DHT22;10261;49.010;12.034;2022-12-10T02:03:35;4.80;99.90
20204;DHT22;10261;49.010;12.034;2022-12-10T02:04:47;4.90;99.90
20204;DHT22;10261;49.010;12.034;2022-12-10T02:05:56;4.90;99.90
20204;DHT22;10261;49.010;12.034;2022-12-10T02:07:12;4.90;99.90
20204;DHT22;10261;49.010;12.034;2022-12-10T02:08:19;4.80;99.90
20204;DHT22;10261;49.010;12.034;2022-12-10T02:09:28;4.70;99.90
20204;DHT22;10261;49.010;12.034;2022-12-10T02:10:43;4.80;99.90
20204;DHT22;10261;49.010;12.034;2022-12-10T02:11:56;4.90;99.90
20204;DHT22;10261;49.010;12.034;2022-12-10T02:13:06;4.90;99.90
20204;DHT22;10261;49.010;12.034;2022-12-10T02:14:15;4.80;99.90
20204;DHT22;10261;49.010;12.034;2022-12-10T02:15:22;4.80;99.90
20204;DHT22;10261;49.010;12.034;2022-12-10T02:16:30;4.90;99.90
20204;DHT22;10261;49.010;12.034;2022-12-10T02:17:37;4.90;99.90
20204;DHT22;10261;49.010;12.034;2022-12-10T02:18:45;4.90;99.90
20204;DHT22;10261;49.010;12.034;2022-12-10T02:19:59;4.90;99.90
20204;DHT22;10261;49.010;12.034;2022-12-10T02:21:07;4.90;99.90
20204;DHT22;10261;49.010;12.034;2022-12-10T02:22:11;5.00;99.90
20204;DHT22;10261;49.010;12.034;2022-12-10T02:23:17;5.00;99.90
20204;DHT22;10261;49.010;12.034;2022-12-10T02:24:25;5.00;99.90
20204;DHT22;10261;49.010;12.034;2022-12-10T02:25:34;5.00;99.90
20204;DHT22;10261;49.010;12.034;2022-12-10T02:26:43;5.00;99.90
20204;DHT22;10261;49.010;12.034;2022-12-10T02:27:52;5.00;99.90
20204;DHT22;10261;49.010;12.034;2022-12-10T02:29:05;4.90;99.90
20204;DHT22;10261;49.010;12.034;2022-12-10T02:30:09;4.90;99.90
20204;DHT22;10261;49.010;12.034;2022-12-10T02:31:15;4.90;99.90
20204;DHT22;10261;49.010;12.034;2022-12-10T02:32:22;4.80;99.90
20204;DHT22;10261;49.010;12.034;2022-12-10T02:33:27;4.80;99.90
20204;DHT22;10261;49.010;12.034;2022-12-10T02:34:34;4.80;99.90
20204;DHT22;10261;49.010;12.034;2022-12-10T02:35:37;4.80;99.90
20204;DHT22;10261;49.010;12.034;2022-12-10T02:36:44;4.80;99.90
20204;DHT22;10261;49.010;12.034;2022-12-10T02:37:50;4.80;99.90
20204;DHT22;10261;49.010;12.034;2022-12-10T02:38:55;4.70;99.90
20204;DHT22;10261;49.010;12.034;2022-12-10T02:40:01;4.70;99.90
20204;DHT22;10261;49.010;12.034;2022-12-10T02:41:08;4.60;99.90
20204;DHT22;10261;49.010;12.034;2022-12-10T02:42:13;4.70;99.90
20204;DHT22;10261;49.010;12.034;2022-12-10T02:43:17;4.80;99.90
20204;DHT22;10261;49.010;12.034;2022-12-10T02:44:22;4.90;99.90
20204;DHT22;10261;49.010;12.034;2022-12-10T02:45:28;5.00;99.90
20204;DHT22;10261;49.010;12.034;2022-12-10T02:46:32;4.90;99.90
20204;DHT22;10261;49.010;12.034;2022-12-10T02:47:36;4.90;99.90
20204;DHT22;10261;49.010;12.034;2022-12-10T02:48:41;5.00;99.90
20204;DHT22;10261;49.010;12.034;2022-12-10T02:49:46;5.00;99.90
20204;DHT22;10261;49.010;12.034;2022-12-10T02:50:49;5.00;99.90
20204;DHT22;10261;49.010;12.034;2022-12-10T02:51:53;4.90;99.90
20204;DHT22;10261;49.010;12.034;2022-12-10T02:52:55;5.00;99.90
20204;DHT22;10261;49.010;12.034;2022-12-10T02:53:59;5.00;99.90
20204;DHT22;10261;49.010;12.034;2022-12-10T02:55:01;5.00;99.90
20204;DHT22;10261;49.010;12.034;2022-12-10T02:56:13;4.90;99.90
20204;DHT22;10261;49.010;12.034;2022-12-10T02:57:25;4.90;99.90
20204;DHT22;10261;49.010;12.034;2022-12-10T02:58:35;5.00;99.90
20204;DHT22;10261;49.010;12.034;2022-12-10T02:59:51;5.00;99.90
20204;DHT22;10261;49.010;12.034;2022-12-10T03:01:02;4.90;99.90
20204;DHT22;10261;49.010;12.034;2022-12-10T03:02:13;4.80;99.90
20204;DHT22;10261;49.010;12.034;2022-12-10T03:03:26;4.90;99.90
20204;DHT22;10261;49.010;12.034;2022-12-10T03:04:35;4.90;99.90
20204;DHT22;10261;49.010;12.034;2022-12-10T03:05:46;4.80;99.90
20204;DHT22;10261;49.010;12.034;2022-12-10T03:06:52;4.80;99.90
20204;DHT22;10261;49.010;12.034;2022-12-10T03:07:59;4.80;99.90
20204;DHT22;10261;49.010;12.034;2022-12-10T03:09:06;4.80;99.90
20204;DHT22;10261;49.010;12.034;2022-12-10T03:10:14;4.80;99.90
20204;DHT22;10261;49.010;12.034;2022-12-10T03:11:21;4.80;99.90
20204;DHT22;10261;49.010;12.034;2022-12-10T03:12:28;4.80;99.90
20204;DHT22;10261;49.010;12.034;2022-12-10T03:13:35;4.80;99.90
20204;DHT22;10261;49.010;12.034;2022-12-10T03:14:39;4.80;99.90
20204;DHT22;10261;49.010;12.034;2022-12-10T03:15:44;4.70;99.90
20204;DHT22;10261;49.010;12.034;2022-12-10T03:16:53;4.70;99.90
20204;DHT22;10261;49.010;12.034;2022-12-10T03:17:56;4.70;99.90
20204;DHT22;10261;49.010;12.034;2022-12-10T03:19:06;4.80;99.90
20204;DHT22;10261;49.010;12.034;2022-12-10T03:20:12;4.80;99.90
20204;DHT22;10261;49.010;12.034;2022-12-10T03:21:16;4.80;99.90
20204;DHT22;10261;49.010;12.034;2022-12-10T03:22:19;4.80;99.90
20204;DHT22;10261;49.010;12.034;2022-12-10T03:23:23;4.80;99.90
20204;DHT22;10261;49.010;12.034;2022-12-10T03:24:26;4.80;99.90
20204;DHT22;10261;49.010;12.034;2022-12-10T03:25:30;4.80;99.90
20204;DHT22;10261;49.010;12.034;2022-12-10T03:26:33;4.80;99.90
20204;DHT22;10261;49.010;12.034;2022-12-10T03:27:37;4.70;99.90
20204;DHT22;10261;49.010;12.034;2022-12-10T03:28:44;4.70;99.90
20204;DHT22;10261;49.010;12.034;2022-12-10T03:29:50;4.60;99.90
20204;DHT22;10261;49.010;12.034;2022-12-10T03:30:55;4.60;99.90
20204;DHT22;10261;49.010;12.034;2022-12-10T03:31:59;4.60;99.90
20204;DHT22;10261;49.010;12.034;2022-12-10T03:33:03;4.70;99.90
20204;DHT22;10261;49.010;12.034;2022-12-10T03:34:07;4.70;99.90
20204;DHT22;10261;49.010;12.034;2022-12-10T03:35:11;4.60;99.90
20204;DHT22;10261;49.010;12.034;2022-12-10T03:36:16;4.60;99.90
20204;DHT22;10261;49.010;12.034;2022-12-10T03:37:19;4.60;99.90
20204;DHT22;10261;49.010;12.034;2022-12-10T03:38:22;4.70;99.90
20204;DHT22;10261;49.010;12.034;2022-12-10T03:39:25;4.70;99.90
20204;DHT22;10261;49.010;12.034;2022-12-10T03:40:29;4.60;99.90
20204;DHT22;10261;49.010;12.034;2022-12-10T03:41:31;4.70;99.90
20204;DHT22;10261;49.010;12.034;2022-12-10T03:42:35;4.60;99.90
20204;DHT22;10261;49.010;12.034;2022-12-10T03:43:50;4.70;99.90
20204;DHT22;10261;49.010;12.034;2022-12-10T03:44:53;4.70;99.90
20204;DHT22;10261;49.010;12.034;2022-12-10T03:45:56;4.70;99.90
20204;DHT22;10261;49.010;12.034;2022-12-10T03:46:59;4.80;99.90
20204;DHT22;10261;49.010;12.034;2022-12-10T03:48:02;4.80;99.90
20204;DHT22;10261;49.010;12.034;2022-12-10T03:49:05;4.70;99.90
20204;DHT22;10261;49.010;12.034;2022-12-10T03:50:08;4.80;99.90
20204;DHT22;10261;49.010;12.034;2022-12-10T03:51:11;4.80;99.90
20204;DHT22;10261;49.010;12.034;2022-12-10T03:52:13;4.80;99.90
20204;DHT22;10261;49.010;12.034;2022-12-10T03:53:17;4.80;99.90
20204;DHT22;10261;49.010;12.034;2022-12-10T03:54:19;4.80;99.90
20204;DHT22;10261;49.010;12.034;2022-12-10T03:55:22;4.80;99.90
20204;DHT22;10261;49.010;12.034;2022-12-10T03:56:24;4.80;99.90
20204;DHT22;10261;49.010;12.034;2022-12-10T03:57:27;4.80;99.90
20204;DHT22;10261;49.010;12.034;2022-12-10T03:58:29;4.80;99.90
20204;DHT22;10261;49.010;12.034;2022-12-10T03:59:32;4.80;99.90
20204;DHT22;10261;49.010;12.034;2022-12-10T04:00:34;4.90;99.90
20204;DHT22;10261;49.010;12.034;2022-12-10T04:01:38;4.80;99.90
20204;DHT22;10261;49.010;12.034;2022-12-10T04:02:40;4.80;99.90
20204;DHT22;10261;49.010;12.034;2022-12-10T04:03:44;4.80;99.90
20204;DHT22;10261;49.010;12.034;2022-12-10T04:04:46;4.80;99.90
20204;DHT22;10261;49.010;12.034;2022-12-10T04:05:49;4.80;99.90
20204;DHT22;10261;49.010;12.034;2022-12-10T04:06:51;4.80;99.90
20204;DHT22;10261;49.010;12.034;2022-12-10T04:07:54;4.80;99.90
20204;DHT22;10261;49.010;12.034;2022-12-10T04:08:56;4.80;99.90
20204;DHT22;10261;49.010;12.034;2022-12-10T04:09:59;4.90;99.90
20204;DHT22;10261;49.010;12.034;2022-12-10T04:11:03;4.90;99.90
20204;DHT22;10261;49.010;12.034;2022-12-10T04:12:07;4.80;99.90
20204;DHT22;10261;49.010;12.034;2022-12-10T04:13:09;4.80;99.90
20204;DHT22;10261;49.010;12.034;2022-12-10T04:14:29;4.80;99.90
20204;DHT22;10261;49.010;12.034;2022-12-10T04:16:01;4.80;99.90
20204;DHT22;10261;49.010;12.034;2022-12-10T04:17:23;4.80;99.90
20204;DHT22;10261;49.010;12.034;2022-12-10T04:18:26;4.90;99.90
20204;DHT22;10261;49.010;12.034;2022-12-10T04:19:28;4.90;99.90
20204;DHT22;10261;49.010;12.034;2022-12-10T04:20:31;4.90;99.90
20204;DHT22;10261;49.010;12.034;2022-12-10T04:21:52;4.90;99.90
20204;DHT22;10261;49.010;12.034;2022-12-10T04:23:12;4.80;99.90
20204;DHT22;10261;49.010;12.034;2022-12-10T04:24:34;4.70;99.90
20204;DHT22;10261;49.010;12.034;2022-12-10T04:25:54;4.70;99.90
20204;DHT22;10261;49.010;12.034;2022-12-10T04:27:18;4.70;99.90
20204;DHT22;10261;49.010;12.034;2022-12-10T04:28:21;4.70;99.90
20204;DHT22;10261;49.010;12.034;2022-12-10T04:29:26;4.70;99.90
20204;DHT22;10261;49.010;12.034;2022-12-10T04:30:29;4.70;99.90
20204;DHT22;10261;49.010;12.034;2022-12-10T04:31:31;4.70;99.90
20204;DHT22;10261;49.010;12.034;2022-12-10T04:32:35;4.70;99.90
20204;DHT22;10261;49.010;12.034;2022-12-10T04:33:37;4.70;99.90
20204;DHT22;10261;49.010;12.034;2022-12-10T04:34:40;4.70;99.90
20204;DHT22;10261;49.010;12.034;2022-12-10T04:35:43;4.60;99.90
20204;DHT22;10261;49.010;12.034;2022-12-10T04:36:46;4.30;99.90
20204;DHT22;10261;49.010;12.034;2022-12-10T04:37:48;3.50;99.90
20204;DHT22;10261;49.010;12.034;2022-12-10T04:38:51;3.20;99.90
20204;DHT22;10261;49.010;12.034;2022-12-10T04:39:53;3.00;99.90
20204;DHT22;10261;49.010;12.034;2022-12-10T04:40:57;2.90;99.90
20204;DHT22;10261;49.010;12.034;2022-12-10T04:42:17;2.90;99.90
20204;DHT22;10261;49.010;12.034;2022-12-10T04:43:20;2.70;99.90
20204;DHT22;10261;49.010;12.034;2022-12-10T04:44:22;2.70;99.90
20204;DHT22;10261;49.010;12.034;2022-12-10T04:45:25;2.70;99.90
20204;DHT22;10261;49.010;12.034;2022-12-10T04:46:28;2.60;99.90
20204;DHT22;10261;49.010;12.034;2022-12-10T04:47:31;2.60;99.90
20204;DHT22;10261;49.010;12.034;2022-12-10T04:48:35;2.70;99.90
20204;DHT22;10261;49.010;12.034;2022-12-10T04:49:38;2.60;99.90
20204;DHT22;10261;49.010;12.034;2022-12-10T04:50:41;2.60;99.90
20204;DHT22;10261;49.010;12.034;2022-12-10T04:51:44;2.60;99.90
20204;DHT22;10261;49.010;12.034;2022-12-10T04:52:47;2.50;99.90
20204;DHT22;10261;49.010;12.034;2022-12-10T04:53:49;2.50;99.90
20204;DHT22;10261;49.010;12.034;2022-12-10T04:54:52;2.50;99.90
20204;DHT22;10261;49.010;12.034;2022-12-10T04:55:54;2.50;99.90
20204;DHT22;10261;49.010;12.034;2022-12-10T04:56:57;2.50;99.90
20204;DHT22;10261;49.010;12.034;2022-12-10T04:57:59;2.40;99.90
20204;DHT22;10261;49.010;12.034;2022-12-10T04:59:03;2.40;99.90
20204;DHT22;10261;49.010;12.034;2022-12-10T05:00:06;2.30;99.90
20204;DHT22;10261;49.010;12.034;2022-12-10T05:01:10;2.30;99.90
20204;DHT22;10261;49.010;12.034;2022-12-10T05:02:13;2.30;99.90
20204;DHT22;10261;49.010;12.034;2022-12-10T05:03:15;2.30;99.90
20204;DHT22;10261;49.010;12.034;2022-12-10T05:04:19;2.30;99.90
20204;DHT22;10261;49.010;12.034;2022-12-10T05:05:22;2.40;99.90
20204;DHT22;10261;49.010;12.034;2022-12-10T05:06:24;2.50;99.90
20204;DHT22;10261;49.010;12.034;2022-12-10T05:07:27;2.40;99.90
20204;DHT22;10261;49.010;12.034;2022-12-10T05:08:29;2.60;99.90
20204;DHT22;10261;49.010;12.034;2022-12-10T05:09:32;2.50;99.90
20204;DHT22;10261;49.010;12.034;2022-12-10T05:10:34;2.60;99.90
20204;DHT22;10261;49.010;12.034;2022-12-10T05:11:37;2.50;99.90
20204;DHT22;10261;49.010;12.034;2022-12-10T05:12:39;1.20;99.90
20204;DHT22;10261;49.010;12.034;2022-12-10T05:13:42;2.50;99.90
20204;DHT22;10261;49.010;12.034;2022-12-10T05:14:44;2.50;99.90
20204;DHT22;10261;49.010;12.034;2022-12-10T05:15:47;2.40;99.90
20204;DHT22;10261;49.010;12.034;2022-12-10T05:16:50;2.40;99.90
20204;DHT22;10261;49.010;12.034;2022-12-10T05:17:53;2.40;99.90
20204;DHT22;10261;49.010;12.034;2022-12-10T05:18:56;2.40;99.90
20204;DHT22;10261;49.010;12.034;2022-12-10T05:20:00;2.50;99.90
20204;DHT22;10261;49.010;12.034;2022-12-10T05:21:04;2.40;99.90
20204;DHT22;10261;49.010;12.034;2022-12-10T05:22:08;2.50;99.90
20204;DHT22;10261;49.010;12.034;2022-12-10T05:23:29;2.40;99.90
20204;DHT22;10261;49.010;12.034;2022-12-10T05:24:31;2.40;99.90
20204;DHT22;10261;49.010;12.034;2022-12-10T05:25:33;2.40;99.90
20204;DHT22;10261;49.010;12.034;2022-12-10T05:26:54;2.40;99.90
20204;DHT22;10261;49.010;12.034;2022-12-10T05:27:58;2.40;99.90
20204;DHT22;10261;49.010;12.034;2022-12-10T05:29:01;2.40;99.90
20204;DHT22;10261;49.010;12.034;2022-12-10T05:30:03;2.40;99.90
20204;DHT22;10261;49.010;12.034;2022-12-10T05:31:12;2.40;99.90
20204;DHT22;10261;49.010;12.034;2022-12-10T05:32:14;2.30;99.90
20204;DHT22;10261;49.010;12.034;2022-12-10T05:33:18;2.30;99.90
20204;DHT22;10261;49.010;12.034;2022-12-10T05:34:20;2.40;99.90
20204;DHT22;10261;49.010;12.034;2022-12-10T05:35:24;2.30;99.90
20204;DHT22;10261;49.010;12.034;2022-12-10T05:36:29;2.30;99.90
20204;DHT22;10261;49.010;12.034;2022-12-10T05:37:33;2.30;99.90
20204;DHT22;10261;49.010;12.034;2022-12-10T05:38:35;2.30;99.90
20204;DHT22;10261;49.010;12.034;2022-12-10T05:39:38;2.30;99.90
20204;DHT22;10261;49.010;12.034;2022-12-10T05:40:40;2.30;99.90
20204;DHT22;10261;49.010;12.034;2022-12-10T05:41:42;2.40;99.90
20204;DHT22;10261;49.010;12.034;2022-12-10T05:42:47;2.40;99.90
20204;DHT22;10261;49.010;12.034;2022-12-10T05:43:49;2.40;99.90
20204;DHT22;10261;49.010;12.034;2022-12-10T05:44:52;2.20;99.90
20204;DHT22;10261;49.010;12.034;2022-12-10T05:45:59;2.20;99.90
20204;DHT22;10261;49.010;12.034;2022-12-10T05:47:02;2.20;99.90
20204;DHT22;10261;49.010;12.034;2022-12-10T05:48:05;2.20;99.90
20204;DHT22;10261;49.010;12.034;2022-12-10T05:49:08;2.20;99.90
20204;DHT22;10261;49.010;12.034;2022-12-10T05:50:10;2.20;99.90
20204;DHT22;10261;49.010;12.034;2022-12-10T05:51:16;2.20;99.90
20204;DHT22;10261;49.010;12.034;2022-12-10T05:52:18;2.30;99.90
20204;DHT22;10261;49.010;12.034;2022-12-10T05:53:22;2.30;99.90
20204;DHT22;10261;49.010;12.034;2022-12-10T05:54:24;2.30;99.90
20204;DHT22;10261;49.010;12.034;2022-12-10T05:55:27;2.20;99.90
20204;DHT22;10261;49.010;12.034;2022-12-10T05:56:30;2.20;99.90
20204;DHT22;10261;49.010;12.034;2022-12-10T05:57:33;2.20;99.90
20204;DHT22;10261;49.010;12.034;2022-12-10T05:58:38;2.20;99.90
20204;DHT22;10261;49.010;12.034;2022-12-10T05:59:42;2.10;99.90
20204;DHT22;10261;49.010;12.034;2022-12-10T06:00:44;2.10;99.90
20204;DHT22;10261;49.010;12.034;2022-12-10T06:01:47;2.10;99.90
20204;DHT22;10261;49.010;12.034;2022-12-10T06:02:50;2.10;99.90
20204;DHT22;10261;49.010;12.034;2022-12-10T06:03:52;2.20;99.90
20204;DHT22;10261;49.010;12.034;2022-12-10T06:04:56;2.30;99.90
20204;DHT22;10261;49.010;12.034;2022-12-10T06:05:59;2.40;99.90
20204;DHT22;10261;49.010;12.034;2022-12-10T06:07:02;2.30;99.90
20204;DHT22;10261;49.010;12.034;2022-12-10T06:08:11;2.30;99.90
20204;DHT22;10261;49.010;12.034;2022-12-10T06:09:13;2.20;99.90
20204;DHT22;10261;49.010;12.034;2022-12-10T06:10:16;2.20;99.90
20204;DHT22;10261;49.010;12.034;2022-12-10T06:11:19;2.20;99.90
20204;DHT22;10261;49.010;12.034;2022-12-10T06:12:22;2.30;99.90
20204;DHT22;10261;49.010;12.034;2022-12-10T06:13:24;2.20;99.90
20204;DHT22;10261;49.010;12.034;2022-12-10T06:14:27;2.20;99.90
20204;DHT22;10261;49.010;12.034;2022-12-10T06:15:30;2.30;99.90
20204;DHT22;10261;49.010;12.034;2022-12-10T06:16:32;2.30;99.90
20204;DHT22;10261;49.010;12.034;2022-12-10T06:17:35;2.20;99.90
20204;DHT22;10261;49.010;12.034;2022-12-10T06:18:38;2.20;99.90
20204;DHT22;10261;49.010;12.034;2022-12-10T06:19:41;2.30;99.90
20204;DHT22;10261;49.010;12.034;2022-12-10T06:20:43;2.30;99.90
20204;DHT22;10261;49.010;12.034;2022-12-10T06:21:48;2.30;99.90
20204;DHT22;10261;49.010;12.034;2022-12-10T06:22:51;2.30;99.90
20204;DHT22;10261;49.010;12.034;2022-12-10T06:23:54;2.30;99.90
20204;DHT22;10261;49.010;12.034;2022-12-10T06:24:56;2.30;99.90
20204;DHT22;10261;49.010;12.034;2022-12-10T06:26:03;2.30;99.90
20204;DHT22;10261;49.010;12.034;2022-12-10T06:27:05;2.30;99.90
20204;DHT22;10261;49.010;12.034;2022-12-10T06:28:09;2.20;99.90
20204;DHT22;10261;49.010;12.034;2022-12-10T06:29:11;2.30;99.90
20204;DHT22;10261;49.010;12.034;2022-12-10T06:30:14;2.30;99.90
20204;DHT22;10261;49.010;12.034;2022-12-10T06:31:17;2.20;99.90
20204;DHT22;10261;49.010;12.034;2022-12-10T06:32:20;2.30;99.90
20204;DHT22;10261;49.010;12.034;2022-12-10T06:33:22;2.30;99.90
20204;DHT22;10261;49.010;12.034;2022-12-10T06:34:25;2.30;99.90
20204;DHT22;10261;49.010;12.034;2022-12-10T06:35:28;2.40;99.90
20204;DHT22;10261;49.010;12.034;2022-12-10T06:36:30;2.40;99.90
20204;DHT22;10261;49.010;12.034;2022-12-10T06:37:33;2.40;99.90
20204;DHT22;10261;49.010;12.034;2022-12-10T06:38:37;2.40;99.90
20204;DHT22;10261;49.010;12.034;2022-12-10T06:39:41;2.30;99.90
20204;DHT22;10261;49.010;12.034;2022-12-10T06:40:43;2.20;99.90
20204;DHT22;10261;49.010;12.034;2022-12-10T06:41:46;2.20;99.90
20204;DHT22;10261;49.010;12.034;2022-12-10T06:42:50;2.30;99.90
20204;DHT22;10261;49.010;12.034;2022-12-10T06:43:53;2.30;99.90
20204;DHT22;10261;49.010;12.034;2022-12-10T06:44:56;2.30;99.90
20204;DHT22;10261;49.010;12.034;2022-12-10T06:46:03;2.30;99.90
20204;DHT22;10261;49.010;12.034;2022-12-10T06:47:05;2.30;99.90
20204;DHT22;10261;49.010;12.034;2022-12-10T06:48:08;2.30;99.90
20204;DHT22;10261;49.010;12.034;2022-12-10T06:49:10;2.30;99.90